sensor_id;sensor_type;location;lat;lon;timestamp;temperature;humidity
52159;DHT22;38145;53.182;6.284;2022-12-07T00:01:47;3.70;30.10
52159;DHT22;38145;53.182;6.284;2022-12-07T00:04:17;3.80;72.60
52159;DHT22;38145;53.182;6.284;2022-12-07T00:06:43;3.90;66.70
52159;DHT22;38145;53.182;6.284;2022-12-07T00:11:38;3.90;92.20
52159;DHT22;38145;53.182;6.284;2022-12-07T00:14:07;3.90;89.70
52159;DHT22;38145;53.182;6.284;2022-12-07T00:16:35;4.00;94.00
52159;DHT22;38145;53.182;6.284;2022-12-07T00:19:02;4.00;99.90
52159;DHT22;38145;53.182;6.284;2022-12-07T00:21:33;4.00;99.90
52159;DHT22;38145;53.182;6.284;2022-12-07T00:24:01;4.10;96.30
52159;DHT22;38145;53.182;6.284;2022-12-07T00:26:31;4.20;46.10
52159;DHT22;38145;53.182;6.284;2022-12-07T00:28:59;4.20;21.00
52159;DHT22;38145;53.182;6.284;2022-12-07T00:31:27;4.30;34.00
52159;DHT22;38145;53.182;6.284;2022-12-07T00:33:54;4.10;4.40
52159;DHT22;38145;53.182;6.284;2022-12-07T00:36:21;4.20;1.00
52159;DHT22;38145;53.182;6.284;2022-12-07T00:38:48;4.20;1.00
52159;DHT22;38145;53.182;6.284;2022-12-07T00:41:18;4.10;1.00
52159;DHT22;38145;53.182;6.284;2022-12-07T00:43:49;4.00;1.00
52159;DHT22;38145;53.182;6.284;2022-12-07T00:46:17;4.10;1.00
52159;DHT22;38145;53.182;6.284;2022-12-07T00:48:43;4.00;1.00
52159;DHT22;38145;53.182;6.284;2022-12-07T00:51:10;4.00;1.00
52159;DHT22;38145;53.182;6.284;2022-12-07T00:53:38;4.00;1.00
52159;DHT22;38145;53.182;6.284;2022-12-07T00:56:05;3.90;1.00
52159;DHT22;38145;53.182;6.284;2022-12-07T00:58:32;3.80;1.00
52159;DHT22;38145;53.182;6.284;2022-12-07T01:00:59;3.90;1.00
52159;DHT22;38145;53.182;6.284;2022-12-07T01:03:27;3.80;1.00
52159;DHT22;38145;53.182;6.284;2022-12-07T01:05:54;3.80;1.00
52159;DHT22;38145;53.182;6.284;2022-12-07T01:08:20;4.00;1.00
52159;DHT22;38145;53.182;6.284;2022-12-07T01:10:47;3.90;18.30
52159;DHT22;38145;53.182;6.284;2022-12-07T01:13:14;3.90;72.50
52159;DHT22;38145;53.182;6.284;2022-12-07T01:15:40;3.90;99.90
52159;DHT22;38145;53.182;6.284;2022-12-07T01:18:14;3.90;99.90
52159;DHT22;38145;53.182;6.284;2022-12-07T01:20:40;3.90;99.90
52159;DHT22;38145;53.182;6.284;2022-12-07T01:23:09;4.00;99.90
52159;DHT22;38145;53.182;6.284;2022-12-07T01:25:37;4.00;99.90
52159;DHT22;38145;53.182;6.284;2022-12-07T01:28:07;3.90;99.90
52159;DHT22;38145;53.182;6.284;2022-12-07T01:30:38;3.90;99.90
52159;DHT22;38145;53.182;6.284;2022-12-07T01:33:05;3.90;99.90
52159;DHT22;38145;53.182;6.284;2022-12-07T01:35:33;3.90;99.90
52159;DHT22;38145;53.182;6.284;2022-12-07T01:37:59;3.90;99.90
52159;DHT22;38145;53.182;6.284;2022-12-07T01:40:28;4.00;99.90
52159;DHT22;38145;53.182;6.284;2022-12-07T01:42:54;4.10;99.90
52159;DHT22;38145;53.182;6.284;2022-12-07T01:47:58;4.20;99.90
52159;DHT22;38145;53.182;6.284;2022-12-07T01:50:25;4.00;99.90
52159;DHT22;38145;53.182;6.284;2022-12-07T01:52:52;4.00;99.90
52159;DHT22;38145;53.182;6.284;2022-12-07T01:55:19;4.20;99.90
52159;DHT22;38145;53.182;6.284;2022-12-07T01:57:47;4.10;99.90
52159;DHT22;38145;53.182;6.284;2022-12-07T02:00:18;4.00;99.90
52159;DHT22;38145;53.182;6.284;2022-12-07T02:05:12;4.00;99.90
52159;DHT22;38145;53.182;6.284;2022-12-07T02:07:38;3.90;99.90
52159;DHT22;38145;53.182;6.284;2022-12-07T02:10:16;4.00;99.90
52159;DHT22;38145;53.182;6.284;2022-12-07T02:12:42;4.00;99.90
52159;DHT22;38145;53.182;6.284;2022-12-07T02:15:10;3.90;99.90
52159;DHT22;38145;53.182;6.284;2022-12-07T02:17:43;4.00;99.90
52159;DHT22;38145;53.182;6.284;2022-12-07T02:20:13;4.00;99.90
52159;DHT22;38145;53.182;6.284;2022-12-07T02:22:50;4.00;99.90
52159;DHT22;38145;53.182;6.284;2022-12-07T02:28:19;3.90;99.90
52159;DHT22;38145;53.182;6.284;2022-12-07T02:30:49;3.70;99.90
52159;DHT22;38145;53.182;6.284;2022-12-07T02:33:24;3.70;99.90
52159;DHT22;38145;53.182;6.284;2022-12-07T02:38:26;3.60;99.90
52159;DHT22;38145;53.182;6.284;2022-12-07T02:40:57;3.80;99.90
52159;DHT22;38145;53.182;6.284;2022-12-07T02:43:31;3.60;99.90
52159;DHT22;38145;53.182;6.284;2022-12-07T02:46:01;3.70;99.90
52159;DHT22;38145;53.182;6.284;2022-12-07T02:48:28;3.80;99.90
52159;DHT22;38145;53.182;6.284;2022-12-07T02:50:55;3.80;99.90
52159;DHT22;38145;53.182;6.284;2022-12-07T02:53:37;3.80;99.90
52159;DHT22;38145;53.182;6.284;2022-12-07T02:56:07;3.70;99.90
52159;DHT22;38145;53.182;6.284;2022-12-07T02:58:45;3.60;99.90
52159;DHT22;38145;53.182;6.284;2022-12-07T03:01:20;3.60;99.90
52159;DHT22;38145;53.182;6.284;2022-12-07T03:03:55;3.70;99.90
52159;DHT22;38145;53.182;6.284;2022-12-07T03:06:29;3.70;99.90
52159;DHT22;38145;53.182;6.284;2022-12-07T03:09:04;3.60;99.90
52159;DHT22;38145;53.182;6.284;2022-12-07T03:14:10;3.70;99.90
52159;DHT22;38145;53.182;6.284;2022-12-07T03:16:41;3.70;99.90
52159;DHT22;38145;53.182;6.284;2022-12-07T03:19:12;3.70;99.90
52159;DHT22;38145;53.182;6.284;2022-12-07T03:21:40;3.70;99.90
52159;DHT22;38145;53.182;6.284;2022-12-07T03:24:08;3.60;99.90
52159;DHT22;38145;53.182;6.284;2022-12-07T03:26:36;3.70;99.90
52159;DHT22;38145;53.182;6.284;2022-12-07T03:29:28;3.80;99.90
52159;DHT22;38145;53.182;6.284;2022-12-07T03:32:41;3.80;99.90
52159;DHT22;38145;53.182;6.284;2022-12-07T03:34:45;3.80;99.90
52159;DHT22;38145;53.182;6.284;2022-12-07T03:37:20;3.80;99.90
52159;DHT22;38145;53.182;6.284;2022-12-07T03:40:02;3.80;99.90
52159;DHT22;38145;53.182;6.284;2022-12-07T03:42:31;3.60;99.90
52159;DHT22;38145;53.182;6.284;2022-12-07T03:44:59;3.60;99.90
52159;DHT22;38145;53.182;6.284;2022-12-07T03:47:29;3.60;99.90
52159;DHT22;38145;53.182;6.284;2022-12-07T03:50:02;3.50;99.90
52159;DHT22;38145;53.182;6.284;2022-12-07T03:52:40;3.40;99.90
52159;DHT22;38145;53.182;6.284;2022-12-07T03:55:14;3.40;99.90
52159;DHT22;38145;53.182;6.284;2022-12-07T03:57:41;3.40;99.90
52159;DHT22;38145;53.182;6.284;2022-12-07T04:00:09;3.50;99.90
52159;DHT22;38145;53.182;6.284;2022-12-07T04:02:36;3.60;99.90
52159;DHT22;38145;53.182;6.284;2022-12-07T04:05:03;3.50;99.90
52159;DHT22;38145;53.182;6.284;2022-12-07T04:07:30;3.50;99.90
52159;DHT22;38145;53.182;6.284;2022-12-07T04:09:57;3.60;99.90
52159;DHT22;38145;53.182;6.284;2022-12-07T04:12:25;3.60;99.90
52159;DHT22;38145;53.182;6.284;2022-12-07T04:14:52;3.70;99.90
52159;DHT22;38145;53.182;6.284;2022-12-07T04:17:18;3.70;99.90
52159;DHT22;38145;53.182;6.284;2022-12-07T04:19:45;3.60;99.90
52159;DHT22;38145;53.182;6.284;2022-12-07T04:22:16;3.50;99.90
52159;DHT22;38145;53.182;6.284;2022-12-07T04:24:44;3.50;99.90
52159;DHT22;38145;53.182;6.284;2022-12-07T04:27:10;3.40;99.90
52159;DHT22;38145;53.182;6.284;2022-12-07T04:29:37;3.40;99.90
52159;DHT22;38145;53.182;6.284;2022-12-07T04:32:06;3.50;99.90
52159;DHT22;38145;53.182;6.284;2022-12-07T04:34:35;3.50;99.90
52159;DHT22;38145;53.182;6.284;2022-12-07T04:37:02;3.50;99.90
52159;DHT22;38145;53.182;6.284;2022-12-07T04:39:29;3.40;99.90
52159;DHT22;38145;53.182;6.284;2022-12-07T04:41:55;3.40;99.90
52159;DHT22;38145;53.182;6.284;2022-12-07T04:44:22;3.40;99.90
52159;DHT22;38145;53.182;6.284;2022-12-07T04:46:49;3.30;99.90
52159;DHT22;38145;53.182;6.284;2022-12-07T04:49:15;3.40;99.90
52159;DHT22;38145;53.182;6.284;2022-12-07T04:51:47;3.30;99.90
52159;DHT22;38145;53.182;6.284;2022-12-07T04:54:14;3.40;99.90
52159;DHT22;38145;53.182;6.284;2022-12-07T04:56:43;3.40;99.90
52159;DHT22;38145;53.182;6.284;2022-12-07T04:59:10;3.30;99.90
52159;DHT22;38145;53.182;6.284;2022-12-07T05:01:38;3.20;99.90
52159;DHT22;38145;53.182;6.284;2022-12-07T05:04:04;3.20;99.90
52159;DHT22;38145;53.182;6.284;2022-12-07T05:06:32;3.20;99.90
52159;DHT22;38145;53.182;6.284;2022-12-07T05:08:59;3.10;99.90
52159;DHT22;38145;53.182;6.284;2022-12-07T05:11:26;3.10;99.90
52159;DHT22;38145;53.182;6.284;2022-12-07T05:14:04;3.20;99.90
52159;DHT22;38145;53.182;6.284;2022-12-07T05:16:31;3.10;99.90
52159;DHT22;38145;53.182;6.284;2022-12-07T05:18:56;3.20;99.90
52159;DHT22;38145;53.182;6.284;2022-12-07T05:21:24;3.10;99.90
52159;DHT22;38145;53.182;6.284;2022-12-07T05:23:50;3.20;99.90
52159;DHT22;38145;53.182;6.284;2022-12-07T05:26:19;3.20;99.90
52159;DHT22;38145;53.182;6.284;2022-12-07T05:28:52;3.20;99.90
52159;DHT22;38145;53.182;6.284;2022-12-07T05:31:19;3.20;99.90
52159;DHT22;38145;53.182;6.284;2022-12-07T05:33:46;3.20;99.90
52159;DHT22;38145;53.182;6.284;2022-12-07T05:36:13;3.20;99.90
52159;DHT22;38145;53.182;6.284;2022-12-07T05:38:43;3.30;99.90
52159;DHT22;38145;53.182;6.284;2022-12-07T05:41:11;3.40;99.90
52159;DHT22;38145;53.182;6.284;2022-12-07T05:43:59;3.50;99.90
52159;DHT22;38145;53.182;6.284;2022-12-07T05:46:25;3.40;99.90
52159;DHT22;38145;53.182;6.284;2022-12-07T05:48:51;3.50;99.90
52159;DHT22;38145;53.182;6.284;2022-12-07T05:51:18;3.50;99.90
52159;DHT22;38145;53.182;6.284;2022-12-07T05:53:44;3.50;99.90
52159;DHT22;38145;53.182;6.284;2022-12-07T05:56:10;3.60;1.00
52159;DHT22;38145;53.182;6.284;2022-12-07T05:58:36;3.70;99.90
52159;DHT22;38145;53.182;6.284;2022-12-07T06:01:23;3.70;42.40
52159;DHT22;38145;53.182;6.284;2022-12-07T06:03:48;3.70;99.90
52159;DHT22;38145;53.182;6.284;2022-12-07T06:06:15;3.70;99.90
52159;DHT22;38145;53.182;6.284;2022-12-07T06:08:51;3.60;96.70
52159;DHT22;38145;53.182;6.284;2022-12-07T06:11:25;3.70;99.90
52159;DHT22;38145;53.182;6.284;2022-12-07T06:14:12;3.80;99.90
52159;DHT22;38145;53.182;6.284;2022-12-07T06:16:38;3.90;99.90
52159;DHT22;38145;53.182;6.284;2022-12-07T06:19:07;3.90;77.70
52159;DHT22;38145;53.182;6.284;2022-12-07T06:21:32;3.90;99.90
52159;DHT22;38145;53.182;6.284;2022-12-07T06:24:00;3.90;1.00
52159;DHT22;38145;53.182;6.284;2022-12-07T06:26:32;3.90;1.00
52159;DHT22;38145;53.182;6.284;2022-12-07T06:28:59;3.80;2.30
52159;DHT22;38145;53.182;6.284;2022-12-07T06:31:26;3.70;41.50
52159;DHT22;38145;53.182;6.284;2022-12-07T06:34:01;3.60;52.80
52159;DHT22;38145;53.182;6.284;2022-12-07T06:36:27;3.60;55.40
52159;DHT22;38145;53.182;6.284;2022-12-07T06:38:53;3.60;78.90
52159;DHT22;38145;53.182;6.284;2022-12-07T06:41:24;3.50;93.80
52159;DHT22;38145;53.182;6.284;2022-12-07T06:43:57;3.40;97.90
52159;DHT22;38145;53.182;6.284;2022-12-07T06:46:23;3.40;99.90
52159;DHT22;38145;53.182;6.284;2022-12-07T06:48:51;3.40;99.90
52159;DHT22;38145;53.182;6.284;2022-12-07T06:51:18;3.30;99.90
52159;DHT22;38145;53.182;6.284;2022-12-07T06:53:44;3.20;99.90
52159;DHT22;38145;53.182;6.284;2022-12-07T06:56:10;3.30;99.90
52159;DHT22;38145;53.182;6.284;2022-12-07T06:58:37;3.10;99.90
52159;DHT22;38145;53.182;6.284;2022-12-07T07:01:07;3.20;99.90
52159;DHT22;38145;53.182;6.284;2022-12-07T07:03:35;3.20;99.90
52159;DHT22;38145;53.182;6.284;2022-12-07T07:06:01;3.10;99.90
52159;DHT22;38145;53.182;6.284;2022-12-07T07:08:28;3.20;99.90
52159;DHT22;38145;53.182;6.284;2022-12-07T07:10:56;3.10;99.90
52159;DHT22;38145;53.182;6.284;2022-12-07T07:13:22;3.00;99.90
52159;DHT22;38145;53.182;6.284;2022-12-07T07:15:48;3.00;99.90
52159;DHT22;38145;53.182;6.284;2022-12-07T07:18:15;3.00;99.90
52159;DHT22;38145;53.182;6.284;2022-12-07T07:20:41;2.80;99.90
52159;DHT22;38145;53.182;6.284;2022-12-07T07:23:08;2.90;99.90
52159;DHT22;38145;53.182;6.284;2022-12-07T07:25:34;2.90;99.90
52159;DHT22;38145;53.182;6.284;2022-12-07T07:28:01;2.90;99.90
52159;DHT22;38145;53.182;6.284;2022-12-07T07:30:27;2.70;99.90
52159;DHT22;38145;53.182;6.284;2022-12-07T07:32:56;2.80;99.90
52159;DHT22;38145;53.182;6.284;2022-12-07T07:35:23;2.90;99.90
52159;DHT22;38145;53.182;6.284;2022-12-07T07:37:50;2.90;99.90
52159;DHT22;38145;53.182;6.284;2022-12-07T07:40:17;2.80;99.90
52159;DHT22;38145;53.182;6.284;2022-12-07T07:42:46;2.80;99.90
52159;DHT22;38145;53.182;6.284;2022-12-07T07:45:20;2.60;99.90
52159;DHT22;38145;53.182;6.284;2022-12-07T07:47:47;2.40;99.90
52159;DHT22;38145;53.182;6.284;2022-12-07T07:50:16;2.40;99.90
52159;DHT22;38145;53.182;6.284;2022-12-07T07:52:43;2.40;99.90
52159;DHT22;38145;53.182;6.284;2022-12-07T07:55:16;2.50;99.90
52159;DHT22;38145;53.182;6.284;2022-12-07T07:57:42;2.70;99.90
52159;DHT22;38145;53.182;6.284;2022-12-07T08:00:11;2.60;99.90
52159;DHT22;38145;53.182;6.284;2022-12-07T08:02:38;2.70;99.90
52159;DHT22;38145;53.182;6.284;2022-12-07T08:05:09;2.80;99.90
52159;DHT22;38145;53.182;6.284;2022-12-07T08:07:36;2.90;99.90
52159;DHT22;38145;53.182;6.284;2022-12-07T08:10:03;2.90;99.90
52159;DHT22;38145;53.182;6.284;2022-12-07T08:12:30;3.00;99.90
52159;DHT22;38145;53.182;6.284;2022-12-07T08:14:56;3.00;99.90
52159;DHT22;38145;53.182;6.284;2022-12-07T08:17:22;3.00;99.90
52159;DHT22;38145;53.182;6.284;2022-12-07T08:19:49;3.00;99.90
52159;DHT22;38145;53.182;6.284;2022-12-07T08:22:15;3.10;99.90
52159;DHT22;38145;53.182;6.284;2022-12-07T08:24:42;2.90;99.90
52159;DHT22;38145;53.182;6.284;2022-12-07T08:27:08;3.10;99.90
52159;DHT22;38145;53.182;6.284;2022-12-07T08:29:36;3.10;99.90
52159;DHT22;38145;53.182;6.284;2022-12-07T08:32:02;3.10;99.90
52159;DHT22;38145;53.182;6.284;2022-12-07T08:34:31;3.10;99.90
52159;DHT22;38145;53.182;6.284;2022-12-07T08:36:57;3.00;99.90
52159;DHT22;38145;53.182;6.284;2022-12-07T08:39:23;3.00;99.90
52159;DHT22;38145;53.182;6.284;2022-12-07T08:41:49;3.00;99.90
52159;DHT22;38145;53.182;6.284;2022-12-07T08:44:16;3.30;99.90
52159;DHT22;38145;53.182;6.284;2022-12-07T08:46:47;3.20;99.90
52159;DHT22;38145;53.182;6.284;2022-12-07T08:49:16;3.20;99.90
52159;DHT22;38145;53.182;6.284;2022-12-07T08:51:43;3.40;99.90
52159;DHT22;38145;53.182;6.284;2022-12-07T08:54:14;3.70;99.90
52159;DHT22;38145;53.182;6.284;2022-12-07T08:56:40;4.00;99.90
52159;DHT22;38145;53.182;6.284;2022-12-07T08:59:08;4.20;99.90
52159;DHT22;38145;53.182;6.284;2022-12-07T09:01:34;4.30;99.90
52159;DHT22;38145;53.182;6.284;2022-12-07T09:04:02;4.20;99.90
52159;DHT22;38145;53.182;6.284;2022-12-07T09:06:28;4.10;99.90
52159;DHT22;38145;53.182;6.284;2022-12-07T09:08:55;4.00;99.90
52159;DHT22;38145;53.182;6.284;2022-12-07T09:11:23;4.00;99.90
52159;DHT22;38145;53.182;6.284;2022-12-07T09:13:49;4.00;99.90
52159;DHT22;38145;53.182;6.284;2022-12-07T09:16:17;3.90;99.90
52159;DHT22;38145;53.182;6.284;2022-12-07T09:18:43;4.00;99.90
52159;DHT22;38145;53.182;6.284;2022-12-07T09:21:10;3.90;99.90
52159;DHT22;38145;53.182;6.284;2022-12-07T09:23:38;3.90;99.90
52159;DHT22;38145;53.182;6.284;2022-12-07T09:26:08;3.90;99.90
52159;DHT22;38145;53.182;6.284;2022-12-07T09:28:34;3.80;99.90
52159;DHT22;38145;53.182;6.284;2022-12-07T09:31:03;3.80;99.90
52159;DHT22;38145;53.182;6.284;2022-12-07T09:33:29;3.90;99.90
52159;DHT22;38145;53.182;6.284;2022-12-07T09:35:55;3.90;99.90
52159;DHT22;38145;53.182;6.284;2022-12-07T09:38:25;4.00;99.90
52159;DHT22;38145;53.182;6.284;2022-12-07T09:41:06;3.90;99.90
52159;DHT22;38145;53.182;6.284;2022-12-07T09:43:34;3.90;99.90
52159;DHT22;38145;53.182;6.284;2022-12-07T09:46:01;3.90;99.90
52159;DHT22;38145;53.182;6.284;2022-12-07T09:48:29;3.90;99.90
52159;DHT22;38145;53.182;6.284;2022-12-07T09:50:57;3.90;99.90
52159;DHT22;38145;53.182;6.284;2022-12-07T09:53:25;4.20;99.90
52159;DHT22;38145;53.182;6.284;2022-12-07T09:55:52;4.70;99.90
52159;DHT22;38145;53.182;6.284;2022-12-07T09:58:23;4.90;99.90
52159;DHT22;38145;53.182;6.284;2022-12-07T10:00:54;5.20;99.90
52159;DHT22;38145;53.182;6.284;2022-12-07T10:03:21;5.30;99.90
52159;DHT22;38145;53.182;6.284;2022-12-07T10:05:50;5.50;99.90
52159;DHT22;38145;53.182;6.284;2022-12-07T10:08:18;5.70;99.90
52159;DHT22;38145;53.182;6.284;2022-12-07T10:10:44;5.80;36.10
52159;DHT22;38145;53.182;6.284;2022-12-07T10:13:13;5.80;1.00
52159;DHT22;38145;53.182;6.284;2022-12-07T10:15:46;5.70;99.90
52159;DHT22;38145;53.182;6.284;2022-12-07T10:18:25;5.70;99.90
52159;DHT22;38145;53.182;6.284;2022-12-07T10:21:01;5.60;1.00
52159;DHT22;38145;53.182;6.284;2022-12-07T10:23:30;5.50;1.00
52159;DHT22;38145;53.182;6.284;2022-12-07T10:25:56;5.50;1.00
52159;DHT22;38145;53.182;6.284;2022-12-07T10:28:27;5.60;7.10
52159;DHT22;38145;53.182;6.284;2022-12-07T10:31:03;5.70;45.80
52159;DHT22;38145;53.182;6.284;2022-12-07T10:33:51;5.80;27.60
52159;DHT22;38145;53.182;6.284;2022-12-07T10:38:46;5.80;99.90
52159;DHT22;38145;53.182;6.284;2022-12-07T10:41:13;6.00;99.90
52159;DHT22;38145;53.182;6.284;2022-12-07T10:43:48;6.00;47.10
52159;DHT22;38145;53.182;6.284;2022-12-07T10:46:20;6.00;99.90
52159;DHT22;38145;53.182;6.284;2022-12-07T10:51:24;5.90;1.00
52159;DHT22;38145;53.182;6.284;2022-12-07T10:56:29;5.70;99.90
52159;DHT22;38145;53.182;6.284;2022-12-07T11:01:39;5.50;1.00
52159;DHT22;38145;53.182;6.284;2022-12-07T11:06:47;5.40;99.90
52159;DHT22;38145;53.182;6.284;2022-12-07T11:09:29;5.30;99.90
52159;DHT22;38145;53.182;6.284;2022-12-07T11:12:00;5.30;99.90
52159;DHT22;38145;53.182;6.284;2022-12-07T11:14:34;5.30;99.90
52159;DHT22;38145;53.182;6.284;2022-12-07T11:17:04;5.30;99.90
52159;DHT22;38145;53.182;6.284;2022-12-07T11:19:44;5.30;99.90
52159;DHT22;38145;53.182;6.284;2022-12-07T11:22:21;5.30;1.00
52159;DHT22;38145;53.182;6.284;2022-12-07T11:24:57;5.30;1.00
52159;DHT22;38145;53.182;6.284;2022-12-07T11:27:30;5.40;99.90
52159;DHT22;38145;53.182;6.284;2022-12-07T11:32:49;5.60;99.90
52159;DHT22;38145;53.182;6.284;2022-12-07T11:35:32;5.70;99.90
52159;DHT22;38145;53.182;6.284;2022-12-07T11:38:01;5.80;99.90
52159;DHT22;38145;53.182;6.284;2022-12-07T11:40:31;5.90;97.90
52159;DHT22;38145;53.182;6.284;2022-12-07T11:45:29;6.00;99.90
52159;DHT22;38145;53.182;6.284;2022-12-07T11:48:08;6.10;99.90
52159;DHT22;38145;53.182;6.284;2022-12-07T11:50:45;6.30;1.00
52159;DHT22;38145;53.182;6.284;2022-12-07T11:55:42;6.50;99.90
52159;DHT22;38145;53.182;6.284;2022-12-07T11:58:22;6.50;99.90
52159;DHT22;38145;53.182;6.284;2022-12-07T12:00:53;6.60;99.90
52159;DHT22;38145;53.182;6.284;2022-12-07T12:03:25;6.70;99.90
52159;DHT22;38145;53.182;6.284;2022-12-07T12:05:58;6.70;4.40
52159;DHT22;38145;53.182;6.284;2022-12-07T12:08:27;6.70;99.90
52159;DHT22;38145;53.182;6.284;2022-12-07T12:16:10;6.40;99.90
52159;DHT22;38145;53.182;6.284;2022-12-07T12:18:53;6.30;99.90
52159;DHT22;38145;53.182;6.284;2022-12-07T12:21:29;6.20;1.00
52159;DHT22;38145;53.182;6.284;2022-12-07T12:24:00;6.10;1.00
52159;DHT22;38145;53.182;6.284;2022-12-07T12:26:32;5.70;1.00
52159;DHT22;38145;53.182;6.284;2022-12-07T12:28:59;5.40;1.00
52159;DHT22;38145;53.182;6.284;2022-12-07T12:33:55;4.80;1.00
52159;DHT22;38145;53.182;6.284;2022-12-07T12:38:50;4.50;99.90
52159;DHT22;38145;53.182;6.284;2022-12-07T12:44:02;4.40;99.90
52159;DHT22;38145;53.182;6.284;2022-12-07T12:51:40;4.60;99.90
52159;DHT22;38145;53.182;6.284;2022-12-07T12:54:11;4.60;99.90
52159;DHT22;38145;53.182;6.284;2022-12-07T12:56:49;4.60;1.00
52159;DHT22;38145;53.182;6.284;2022-12-07T12:59:22;4.60;1.00
52159;DHT22;38145;53.182;6.284;2022-12-07T13:01:50;4.70;1.00
52159;DHT22;38145;53.182;6.284;2022-12-07T13:04:18;4.70;1.00
52159;DHT22;38145;53.182;6.284;2022-12-07T13:06:48;4.70;1.00
52159;DHT22;38145;53.182;6.284;2022-12-07T13:09:22;4.70;1.00
52159;DHT22;38145;53.182;6.284;2022-12-07T13:11:50;4.60;1.00
52159;DHT22;38145;53.182;6.284;2022-12-07T13:14:39;4.60;1.00
52159;DHT22;38145;53.182;6.284;2022-12-07T13:17:09;4.60;1.00
52159;DHT22;38145;53.182;6.284;2022-12-07T13:24:55;4.40;99.90
52159;DHT22;38145;53.182;6.284;2022-12-07T13:27:22;4.50;99.90
52159;DHT22;38145;53.182;6.284;2022-12-07T13:29:50;4.40;99.90
52159;DHT22;38145;53.182;6.284;2022-12-07T13:32:23;4.40;99.90
52159;DHT22;38145;53.182;6.284;2022-12-07T13:34:49;4.40;99.90
52159;DHT22;38145;53.182;6.284;2022-12-07T13:37:18;4.40;99.90
52159;DHT22;38145;53.182;6.284;2022-12-07T13:39:53;4.40;99.90
52159;DHT22;38145;53.182;6.284;2022-12-07T13:44:48;4.40;1.00
52159;DHT22;38145;53.182;6.284;2022-12-07T13:47:16;4.40;1.00
52159;DHT22;38145;53.182;6.284;2022-12-07T13:49:47;4.40;1.00
52159;DHT22;38145;53.182;6.284;2022-12-07T13:52:15;4.40;1.00
52159;DHT22;38145;53.182;6.284;2022-12-07T13:54:43;4.40;1.00
52159;DHT22;38145;53.182;6.284;2022-12-07T13:57:09;4.40;1.00
52159;DHT22;38145;53.182;6.284;2022-12-07T13:59:37;4.40;1.00
52159;DHT22;38145;53.182;6.284;2022-12-07T14:02:34;4.40;1.00
52159;DHT22;38145;53.182;6.284;2022-12-07T14:05:05;4.30;1.00
52159;DHT22;38145;53.182;6.284;2022-12-07T14:07:32;4.40;1.00
52159;DHT22;38145;53.182;6.284;2022-12-07T14:09:59;4.40;1.00
52159;DHT22;38145;53.182;6.284;2022-12-07T14:12:26;4.40;1.00
52159;DHT22;38145;53.182;6.284;2022-12-07T14:14:53;4.40;1.00
52159;DHT22;38145;53.182;6.284;2022-12-07T14:17:21;4.40;1.00
52159;DHT22;38145;53.182;6.284;2022-12-07T14:20:00;4.40;95.90
52159;DHT22;38145;53.182;6.284;2022-12-07T14:24:59;4.50;99.90
52159;DHT22;38145;53.182;6.284;2022-12-07T14:27:29;4.40;99.90
52159;DHT22;38145;53.182;6.284;2022-12-07T14:30:00;4.40;99.90
52159;DHT22;38145;53.182;6.284;2022-12-07T14:32:27;4.40;99.90
52159;DHT22;38145;53.182;6.284;2022-12-07T14:34:56;4.20;99.90
52159;DHT22;38145;53.182;6.284;2022-12-07T14:37:24;4.20;99.90
52159;DHT22;38145;53.182;6.284;2022-12-07T14:39:51;4.10;99.90
52159;DHT22;38145;53.182;6.284;2022-12-07T14:42:19;4.00;99.90
52159;DHT22;38145;53.182;6.284;2022-12-07T14:44:46;4.00;99.90
52159;DHT22;38145;53.182;6.284;2022-12-07T14:47:13;4.00;99.90
52159;DHT22;38145;53.182;6.284;2022-12-07T14:49:40;4.00;99.90
52159;DHT22;38145;53.182;6.284;2022-12-07T14:52:09;4.00;99.90
52159;DHT22;38145;53.182;6.284;2022-12-07T14:54:38;3.90;99.90
52159;DHT22;38145;53.182;6.284;2022-12-07T14:57:04;3.90;99.90
52159;DHT22;38145;53.182;6.284;2022-12-07T14:59:31;3.80;99.90
52159;DHT22;38145;53.182;6.284;2022-12-07T15:01:57;3.90;99.90
52159;DHT22;38145;53.182;6.284;2022-12-07T15:04:23;3.80;99.90
52159;DHT22;38145;53.182;6.284;2022-12-07T15:06:56;3.80;99.90
52159;DHT22;38145;53.182;6.284;2022-12-07T15:09:22;3.90;99.90
52159;DHT22;38145;53.182;6.284;2022-12-07T15:11:48;3.80;99.90
52159;DHT22;38145;53.182;6.284;2022-12-07T15:14:14;3.80;99.90
52159;DHT22;38145;53.182;6.284;2022-12-07T15:16:40;3.70;99.90
52159;DHT22;38145;53.182;6.284;2022-12-07T15:19:12;3.50;99.90
52159;DHT22;38145;53.182;6.284;2022-12-07T15:21:40;3.50;99.90
52159;DHT22;38145;53.182;6.284;2022-12-07T15:24:08;3.50;99.90
52159;DHT22;38145;53.182;6.284;2022-12-07T15:26:34;3.40;99.90
52159;DHT22;38145;53.182;6.284;2022-12-07T15:29:00;3.50;99.90
52159;DHT22;38145;53.182;6.284;2022-12-07T15:31:27;3.40;99.90
52159;DHT22;38145;53.182;6.284;2022-12-07T15:33:52;3.40;99.90
52159;DHT22;38145;53.182;6.284;2022-12-07T15:36:20;3.40;99.90
52159;DHT22;38145;53.182;6.284;2022-12-07T15:38:47;3.50;99.90
52159;DHT22;38145;53.182;6.284;2022-12-07T15:41:13;3.50;99.90
52159;DHT22;38145;53.182;6.284;2022-12-07T15:43:39;3.40;99.90
52159;DHT22;38145;53.182;6.284;2022-12-07T15:46:28;3.40;99.90
52159;DHT22;38145;53.182;6.284;2022-12-07T15:48:54;3.50;99.90
52159;DHT22;38145;53.182;6.284;2022-12-07T15:51:21;3.60;99.90
52159;DHT22;38145;53.182;6.284;2022-12-07T15:54:06;3.60;99.90
52159;DHT22;38145;53.182;6.284;2022-12-07T15:56:32;3.60;99.90
52159;DHT22;38145;53.182;6.284;2022-12-07T15:58:58;3.60;99.90
52159;DHT22;38145;53.182;6.284;2022-12-07T16:01:24;3.60;99.90
52159;DHT22;38145;53.182;6.284;2022-12-07T16:03:50;3.50;99.90
52159;DHT22;38145;53.182;6.284;2022-12-07T16:06:16;3.60;99.90
52159;DHT22;38145;53.182;6.284;2022-12-07T16:08:44;3.60;99.90
52159;DHT22;38145;53.182;6.284;2022-12-07T16:11:15;3.40;99.90
52159;DHT22;38145;53.182;6.284;2022-12-07T16:13:42;3.60;99.90
52159;DHT22;38145;53.182;6.284;2022-12-07T16:16:13;3.50;99.90
52159;DHT22;38145;53.182;6.284;2022-12-07T16:18:41;3.50;99.90
52159;DHT22;38145;53.182;6.284;2022-12-07T16:21:11;3.70;99.90
52159;DHT22;38145;53.182;6.284;2022-12-07T16:23:37;3.60;99.90
52159;DHT22;38145;53.182;6.284;2022-12-07T16:26:10;3.70;99.90
52159;DHT22;38145;53.182;6.284;2022-12-07T16:28:40;3.60;99.90
52159;DHT22;38145;53.182;6.284;2022-12-07T16:31:09;3.60;99.90
52159;DHT22;38145;53.182;6.284;2022-12-07T16:33:37;3.70;99.90
52159;DHT22;38145;53.182;6.284;2022-12-07T16:36:04;3.60;99.90
52159;DHT22;38145;53.182;6.284;2022-12-07T16:38:32;3.60;99.90
52159;DHT22;38145;53.182;6.284;2022-12-07T16:41:00;3.50;99.90
52159;DHT22;38145;53.182;6.284;2022-12-07T16:43:26;3.50;99.90
52159;DHT22;38145;53.182;6.284;2022-12-07T16:45:53;3.60;99.90
52159;DHT22;38145;53.182;6.284;2022-12-07T16:48:21;3.60;99.90
52159;DHT22;38145;53.182;6.284;2022-12-07T16:50:47;3.50;99.90
52159;DHT22;38145;53.182;6.284;2022-12-07T16:53:16;3.60;99.90
52159;DHT22;38145;53.182;6.284;2022-12-07T16:55:43;3.60;99.90
52159;DHT22;38145;53.182;6.284;2022-12-07T16:58:11;3.60;99.90
52159;DHT22;38145;53.182;6.284;2022-12-07T17:00:37;3.60;99.90
52159;DHT22;38145;53.182;6.284;2022-12-07T17:03:03;3.60;99.90
52159;DHT22;38145;53.182;6.284;2022-12-07T17:05:33;3.60;99.90